createdAt,value
2018-08-19T00:02:24.224Z,99.90
2018-08-19T00:05:06.020Z,99.90
2018-08-19T00:07:35.002Z,99.90
2018-08-19T00:10:04.717Z,99.90
2018-08-19T00:12:41.783Z,99.90
2018-08-19T00:15:12.016Z,99.90
2018-08-19T00:17:40.953Z,99.90
2018-08-19T00:20:11.852Z,99.90
2018-08-19T00:22:42.581Z,99.90
2018-08-19T00:25:18.698Z,99.90
2018-08-19T00:27:46.920Z,99.90
2018-08-19T00:30:16.229Z,99.90
2018-08-19T00:32:47.658Z,99.90
2018-08-19T00:35:18.597Z,99.90
2018-08-19T00:37:47.648Z,99.90
2018-08-19T00:40:18.668Z,99.90
2018-08-19T00:42:46.845Z,99.90
2018-08-19T00:45:16.652Z,99.90
2018-08-19T00:47:52.144Z,99.90
2018-08-19T00:50:22.223Z,99.90
2018-08-19T00:52:52.661Z,99.90
2018-08-19T00:55:21.312Z,99.90
2018-08-19T00:57:54.533Z,99.90
2018-08-19T01:00:22.709Z,99.90
2018-08-19T01:02:50.930Z,99.90
2018-08-19T01:05:22.252Z,99.90
2018-08-19T01:07:55.190Z,99.90
2018-08-19T01:10:24.033Z,99.90
2018-08-19T01:12:53.183Z,99.90
2018-08-19T01:15:22.981Z,99.90
2018-08-19T01:17:51.865Z,99.90
2018-08-19T01:20:22.892Z,99.90
2018-08-19T01:22:52.324Z,99.90
2018-08-19T01:25:22.857Z,99.90
2018-08-19T01:27:52.646Z,99.90
2018-08-19T01:30:24.134Z,99.90
2018-08-19T01:32:54.513Z,99.90
2018-08-19T01:35:29.718Z,99.90
2018-08-19T01:37:57.856Z,99.90
2018-08-19T01:40:28.052Z,99.90
2018-08-19T01:42:56.219Z,99.90
2018-08-19T01:45:29.022Z,99.90
2018-08-19T01:47:57.252Z,99.90
2018-08-19T01:50:26.765Z,99.90
2018-08-19T01:52:55.841Z,99.90
2018-08-19T01:55:26.936Z,99.90
2018-08-19T01:57:59.371Z,99.90
2018-08-19T02:00:28.182Z,99.90
2018-08-19T02:03:05.391Z,99.90
2018-08-19T02:05:37.371Z,99.90
2018-08-19T02:08:05.615Z,99.90
2018-08-19T02:10:36.696Z,99.90
2018-08-19T02:13:05.620Z,99.90
2018-08-19T02:15:34.761Z,99.90
2018-08-19T02:18:06.264Z,99.90
2018-08-19T02:20:40.800Z,99.90
2018-08-19T02:23:15.555Z,99.90
2018-08-19T02:25:50.516Z,99.90
2018-08-19T02:28:21.104Z,99.90
2018-08-19T02:31:00.466Z,99.90
2018-08-19T02:33:36.695Z,99.90
2018-08-19T02:36:16.905Z,99.90
2018-08-19T02:38:49.200Z,99.90
2018-08-19T02:41:22.132Z,99.90
2018-08-19T02:43:57.811Z,99.90
2018-08-19T02:46:27.913Z,99.90
2018-08-19T02:48:56.139Z,99.90
2018-08-19T02:51:25.691Z,99.90
2018-08-19T02:53:53.808Z,99.90
2018-08-19T02:56:23.226Z,99.90
2018-08-19T02:58:54.149Z,99.90
2018-08-19T03:01:23.175Z,99.90
2018-08-19T03:03:53.045Z,99.90
2018-08-19T03:06:22.405Z,99.90
2018-08-19T03:08:56.578Z,99.90
2018-08-19T03:11:26.554Z,99.90
2018-08-19T03:13:58.880Z,99.90
2018-08-19T03:16:28.641Z,99.90
2018-08-19T03:18:58.683Z,99.90
2018-08-19T03:21:31.891Z,99.90
2018-08-19T03:24:00.740Z,99.90
2018-08-19T03:26:30.767Z,99.90
2018-08-19T03:29:04.633Z,99.90
2018-08-19T03:31:34.501Z,99.90
2018-08-19T03:34:05.783Z,99.90
2018-08-19T03:36:43.404Z,99.90
2018-08-19T03:39:17.180Z,99.90
2018-08-19T03:41:46.018Z,99.90
2018-08-19T03:44:24.173Z,99.90
2018-08-19T03:46:52.324Z,99.90
2018-08-19T03:49:23.228Z,99.90
2018-08-19T03:51:54.327Z,99.90
2018-08-19T03:54:23.380Z,99.90
2018-08-19T03:56:52.036Z,99.90
2018-08-19T03:59:22.691Z,99.90
2018-08-19T04:01:51.908Z,99.90
2018-08-19T04:04:20.740Z,99.90
2018-08-19T04:06:50.247Z,99.90
2018-08-19T04:09:18.418Z,99.90
2018-08-19T04:12:08.692Z,99.90
2018-08-19T04:14:36.901Z,99.90
2018-08-19T04:17:07.398Z,99.90
2018-08-19T04:19:41.208Z,99.90
2018-08-19T04:22:10.941Z,99.90
2018-08-19T04:24:41.817Z,99.90
2018-08-19T04:27:12.042Z,99.90
2018-08-19T04:29:40.601Z,99.90
2018-08-19T04:32:19.157Z,99.90
2018-08-19T04:34:49.536Z,99.90
2018-08-19T04:37:17.704Z,99.90
2018-08-19T04:39:45.840Z,99.90
2018-08-19T04:42:14.435Z,99.90
2018-08-19T04:44:43.844Z,99.90
2018-08-19T04:47:23.461Z,99.90
2018-08-19T04:49:53.321Z,99.90
2018-08-19T04:52:24.112Z,99.90
2018-08-19T04:54:54.667Z,99.90
2018-08-19T04:57:24.776Z,99.90
2018-08-19T04:59:53.301Z,99.90
2018-08-19T05:02:23.421Z,99.90
2018-08-19T05:04:56.546Z,99.90
2018-08-19T05:07:24.982Z,99.90
2018-08-19T05:09:55.836Z,99.90
2018-08-19T05:12:35.844Z,99.90
2018-08-19T05:15:05.904Z,99.90
2018-08-19T05:17:34.678Z,99.90
2018-08-19T05:20:16.526Z,99.90
2018-08-19T05:22:44.986Z,99.90
2018-08-19T05:25:13.552Z,99.90
2018-08-19T05:27:44.210Z,99.90
2018-08-19T05:30:15.285Z,99.90
2018-08-19T05:32:49.226Z,99.90
2018-08-19T05:35:18.524Z,99.90
2018-08-19T05:37:47.371Z,99.90
2018-08-19T05:40:17.383Z,99.90
2018-08-19T05:42:46.624Z,99.90
2018-08-19T05:45:16.784Z,99.90
2018-08-19T05:48:17.019Z,99.90
2018-08-19T05:50:47.952Z,99.90
2018-08-19T05:53:17.128Z,99.90
2018-08-19T05:55:46.045Z,99.90
2018-08-19T05:58:14.593Z,99.90
2018-08-19T06:00:44.557Z,99.90
2018-08-19T06:03:13.654Z,99.90
2018-08-19T06:05:41.790Z,99.90
2018-08-19T06:08:11.710Z,99.90
2018-08-19T06:10:45.768Z,99.90
2018-08-19T06:13:14.275Z,99.90
2018-08-19T06:15:43.467Z,99.90
2018-08-19T06:18:12.145Z,99.90
2018-08-19T06:20:42.294Z,99.90
2018-08-19T06:23:11.152Z,99.90
2018-08-19T06:25:39.716Z,99.90
2018-08-19T06:28:11.246Z,99.90
2018-08-19T06:30:40.344Z,99.90
2018-08-19T06:33:08.579Z,99.90
2018-08-19T06:35:37.650Z,99.90
2018-08-19T06:38:08.605Z,99.90
2018-08-19T06:40:38.456Z,99.90
2018-08-19T06:43:08.157Z,99.80
2018-08-19T06:45:37.006Z,97.60
2018-08-19T06:48:05.579Z,96.40
2018-08-19T06:50:35.229Z,96.20
2018-08-19T06:55:38.380Z,95.10
2018-08-19T06:58:07.980Z,94.90
2018-08-19T07:00:39.131Z,95.00
2018-08-19T07:03:07.953Z,95.30
2018-08-19T07:05:36.769Z,95.40
2018-08-19T07:08:06.853Z,95.00
2018-08-19T07:10:37.924Z,94.50
2018-08-19T07:13:09.275Z,94.10
2018-08-19T07:15:39.975Z,93.30
2018-08-19T07:18:11.108Z,92.90
2018-08-19T07:20:43.663Z,93.30
2018-08-19T07:23:16.633Z,92.70
2018-08-19T07:25:45.590Z,91.70
2018-08-19T07:28:16.452Z,91.10
2018-08-19T07:30:46.557Z,90.40
2018-08-19T07:33:15.652Z,89.70
2018-08-19T07:35:46.404Z,90.00
2018-08-19T07:38:14.820Z,87.70
2018-08-19T07:40:46.261Z,87.30
2018-08-19T07:43:15.465Z,85.70
2018-08-19T07:45:43.922Z,84.40
2018-08-19T07:48:12.369Z,82.90
2018-08-19T07:50:41.528Z,82.10
2018-08-19T07:53:13.791Z,82.90
2018-08-19T07:55:42.783Z,82.40
2018-08-19T07:58:11.848Z,82.30
2018-08-19T08:00:42.740Z,81.60
2018-08-19T08:03:11.315Z,82.20
2018-08-19T08:05:45.296Z,82.00
2018-08-19T08:08:15.729Z,81.80
2018-08-19T08:10:46.837Z,81.60
2018-08-19T08:13:15.031Z,81.80
2018-08-19T08:15:49.094Z,82.00
2018-08-19T08:18:18.239Z,81.00
2018-08-19T08:20:54.592Z,81.00
2018-08-19T08:23:26.533Z,80.10
2018-08-19T08:25:57.701Z,79.80
2018-08-19T08:28:26.573Z,78.50
2018-08-19T08:30:54.788Z,78.50
2018-08-19T08:33:23.666Z,77.50
2018-08-19T08:35:57.640Z,75.90
2018-08-19T08:38:28.456Z,75.80
2018-08-19T08:40:59.615Z,76.70
2018-08-19T08:43:28.296Z,76.20
2018-08-19T08:46:00.177Z,76.50
2018-08-19T08:48:29.261Z,76.90
2018-08-19T08:50:59.163Z,77.10
2018-08-19T08:53:33.522Z,76.80
2018-08-19T08:56:04.457Z,74.80
2018-08-19T08:58:33.834Z,73.50
2018-08-19T09:01:03.443Z,72.40
2018-08-19T09:03:31.671Z,70.50
2018-08-19T09:06:01.213Z,70.20
2018-08-19T09:08:30.176Z,70.10
2018-08-19T09:11:00.292Z,69.20
2018-08-19T09:13:28.822Z,69.20
2018-08-19T09:15:58.668Z,69.20
2018-08-19T09:18:30.386Z,68.80
2018-08-19T09:21:05.470Z,70.90
2018-08-19T09:23:35.333Z,72.00
2018-08-19T09:26:04.468Z,70.20
2018-08-19T09:28:33.888Z,69.40
2018-08-19T09:31:02.968Z,68.90
2018-08-19T09:33:32.152Z,68.50
2018-08-19T09:36:01.292Z,68.50
2018-08-19T09:38:30.436Z,67.40
2018-08-19T09:40:58.653Z,66.10
2018-08-19T09:43:28.562Z,65.10
2018-08-19T09:46:01.128Z,65.00
2018-08-19T09:48:31.137Z,65.30
2018-08-19T09:51:05.024Z,64.80
2018-08-19T09:53:34.840Z,61.80
2018-08-19T09:56:10.553Z,62.90
2018-08-19T09:58:46.817Z,59.60
2018-08-19T10:01:51.443Z,58.50
2018-08-19T10:04:22.736Z,59.20
2018-08-19T10:07:03.444Z,58.20
2018-08-19T10:09:31.616Z,57.70
2018-08-19T10:12:01.886Z,57.90
2018-08-19T10:14:30.369Z,57.40
2018-08-19T10:16:58.813Z,56.90
2018-08-19T10:19:30.036Z,56.80
2018-08-19T10:21:59.697Z,56.50
2018-08-19T10:24:33.317Z,56.10
2018-08-19T10:27:02.649Z,60.10
2018-08-19T10:29:36.112Z,60.00
2018-08-19T10:32:05.698Z,60.20
2018-08-19T10:34:34.945Z,59.70
2018-08-19T10:37:04.988Z,59.20
2018-08-19T10:39:34.940Z,61.20
2018-08-19T10:42:19.642Z,61.30
2018-08-19T10:44:52.764Z,61.30
2018-08-19T10:47:22.803Z,61.20
2018-08-19T10:50:00.391Z,61.30
2018-08-19T10:52:31.830Z,61.20
2018-08-19T10:55:02.320Z,61.80
2018-08-19T10:57:32.643Z,60.40
2018-08-19T11:00:01.434Z,59.90
2018-08-19T11:02:29.576Z,60.40
2018-08-19T11:04:59.776Z,60.50
2018-08-19T11:07:28.904Z,60.30
2018-08-19T11:10:27.479Z,61.00
2018-08-19T11:12:59.682Z,61.40
2018-08-19T11:15:44.337Z,62.60
2018-08-19T11:18:31.208Z,62.90
2018-08-19T11:21:09.274Z,62.40
2018-08-19T11:23:40.015Z,60.70
2018-08-19T11:26:10.112Z,62.30
2018-08-19T11:28:49.756Z,61.60
2018-08-19T11:31:24.934Z,61.90
2018-08-19T11:33:59.073Z,59.10
2018-08-19T11:39:09.428Z,60.30
2018-08-19T11:41:38.444Z,60.10
2018-08-19T11:44:09.932Z,60.40
2018-08-19T11:46:39.574Z,60.00
2018-08-19T11:49:13.151Z,59.60
2018-08-19T11:52:00.563Z,60.60
2018-08-19T11:54:31.226Z,61.00
2018-08-19T11:57:05.769Z,60.70
2018-08-19T11:59:39.953Z,59.50
2018-08-19T12:02:14.493Z,59.10
2018-08-19T12:04:43.511Z,58.90
2018-08-19T12:07:14.544Z,57.50
2018-08-19T12:09:47.274Z,58.10
2018-08-19T12:12:16.526Z,57.90
2018-08-19T12:14:45.359Z,57.60
2018-08-19T12:17:13.596Z,57.20
2018-08-19T12:19:45.761Z,56.90
2018-08-19T12:22:14.942Z,56.80
2018-08-19T12:24:45.166Z,56.80
2018-08-19T12:27:16.830Z,56.90
2018-08-19T12:29:45.817Z,54.20
2018-08-19T12:32:21.972Z,54.30
2018-08-19T12:34:58.940Z,55.40
2018-08-19T12:37:30.082Z,55.90
2018-08-19T12:39:59.537Z,56.20
2018-08-19T12:42:30.304Z,56.80
2018-08-19T12:45:06.682Z,55.40
2018-08-19T12:47:35.353Z,56.30
2018-08-19T12:50:15.035Z,55.50
2018-08-19T12:52:47.256Z,55.80
2018-08-19T12:55:16.756Z,55.90
2018-08-19T12:57:51.928Z,55.10
2018-08-19T13:00:23.203Z,55.00
2018-08-19T13:02:52.469Z,54.30
2018-08-19T13:05:24.794Z,53.80
2018-08-19T13:07:53.102Z,54.50
2018-08-19T13:10:23.479Z,54.90
2018-08-19T13:12:55.708Z,54.80
2018-08-19T13:15:26.184Z,55.10
2018-08-19T13:17:57.419Z,53.90
2018-08-19T13:20:30.114Z,54.00
2018-08-19T13:23:03.683Z,54.00
2018-08-19T13:25:32.479Z,54.20
2018-08-19T13:28:02.940Z,55.00
2018-08-19T13:30:31.658Z,54.90
2018-08-19T13:33:00.582Z,53.60
2018-08-19T13:35:28.712Z,53.80
2018-08-19T13:38:02.640Z,54.10
2018-08-19T13:40:31.956Z,53.50
2018-08-19T13:43:00.955Z,54.00
2018-08-19T13:45:29.209Z,54.10
2018-08-19T13:47:58.122Z,53.80
2018-08-19T13:50:27.573Z,55.20
2018-08-19T13:52:58.584Z,55.70
2018-08-19T13:55:28.486Z,55.60
2018-08-19T13:57:58.350Z,56.00
2018-08-19T14:00:31.333Z,54.80
2018-08-19T14:03:07.674Z,55.00
2018-08-19T14:05:40.331Z,55.10
2018-08-19T14:08:09.576Z,54.60
2018-08-19T14:10:38.145Z,54.90
2018-08-19T14:13:07.712Z,55.50
2018-08-19T14:18:27.184Z,55.30
2018-08-19T14:20:55.916Z,56.10
2018-08-19T14:23:26.389Z,56.00
2018-08-19T14:26:03.877Z,56.20
2018-08-19T14:28:35.363Z,55.70
2018-08-19T14:31:07.409Z,55.10
2018-08-19T14:33:36.829Z,55.00
2018-08-19T14:36:05.017Z,55.20
2018-08-19T14:38:33.756Z,55.90
2018-08-19T14:41:06.077Z,55.80
2018-08-19T14:43:41.285Z,54.90
2018-08-19T14:46:11.120Z,55.30
2018-08-19T14:48:42.049Z,54.60
2018-08-19T14:51:11.019Z,55.10
2018-08-19T14:53:41.701Z,54.70
2018-08-19T14:56:16.587Z,54.30
2018-08-19T14:58:46.183Z,53.90
2018-08-19T15:01:15.568Z,54.50
2018-08-19T15:04:01.176Z,54.30
2018-08-19T15:06:30.872Z,54.90
2018-08-19T15:09:00.700Z,55.30
2018-08-19T15:11:29.449Z,55.40
2018-08-19T15:14:02.664Z,53.80
2018-08-19T15:19:18.346Z,53.70
2018-08-19T15:21:56.326Z,54.00
2018-08-19T15:24:27.089Z,53.80
2018-08-19T15:26:55.772Z,53.90
2018-08-19T15:29:31.456Z,54.20
2018-08-19T15:32:02.301Z,55.10
2018-08-19T15:34:31.709Z,54.70
2018-08-19T15:37:01.789Z,54.80
2018-08-19T15:39:30.504Z,54.50
2018-08-19T15:41:59.788Z,54.70
2018-08-19T15:44:28.267Z,54.10
2018-08-19T15:46:58.671Z,54.50
2018-08-19T15:49:29.998Z,54.30
2018-08-19T15:51:58.684Z,54.40
2018-08-19T15:54:29.015Z,53.90
2018-08-19T15:56:59.941Z,53.90
2018-08-19T15:59:33.590Z,54.30
2018-08-19T16:02:04.968Z,54.70
2018-08-19T16:04:34.196Z,54.50
2018-08-19T16:09:56.708Z,55.10
2018-08-19T16:12:27.372Z,55.40
2018-08-19T16:14:55.765Z,55.20
2018-08-19T16:17:24.813Z,55.10
2018-08-19T16:19:55.379Z,55.10
2018-08-19T16:22:25.880Z,56.10
2018-08-19T16:24:55.593Z,57.10
2018-08-19T16:27:26.600Z,57.90
2018-08-19T16:30:00.880Z,58.70
2018-08-19T16:32:29.383Z,58.50
2018-08-19T16:34:58.680Z,59.10
2018-08-19T16:37:27.642Z,59.00
2018-08-19T16:40:00.183Z,59.50
2018-08-19T16:42:33.153Z,59.70
2018-08-19T16:45:04.739Z,59.70
2018-08-19T16:47:34.084Z,59.40
2018-08-19T16:50:03.432Z,59.70
2018-08-19T16:52:32.210Z,60.80
2018-08-19T16:55:01.271Z,61.40
2018-08-19T16:57:31.885Z,62.80
2018-08-19T17:00:02.699Z,62.80
2018-08-19T17:02:31.520Z,63.20
2018-08-19T17:05:00.284Z,63.80
2018-08-19T17:07:29.176Z,64.30
2018-08-19T17:09:57.780Z,64.90
2018-08-19T17:12:25.944Z,65.80
2018-08-19T17:14:57.813Z,65.70
2018-08-19T17:17:28.324Z,66.00
2018-08-19T17:19:56.520Z,66.20
2018-08-19T17:22:29.124Z,66.40
2018-08-19T17:24:58.029Z,67.50
2018-08-19T17:27:27.684Z,67.10
2018-08-19T17:29:58.504Z,67.40
2018-08-19T17:32:26.702Z,67.70
2018-08-19T17:34:58.000Z,68.90
2018-08-19T17:37:26.500Z,67.90
2018-08-19T17:39:54.761Z,68.10
2018-08-19T17:42:26.894Z,68.40
2018-08-19T17:44:55.791Z,68.40
2018-08-19T17:47:25.704Z,68.80
2018-08-19T17:49:54.291Z,69.10
2018-08-19T17:52:28.505Z,69.20
2018-08-19T17:55:00.119Z,69.30
2018-08-19T17:57:29.128Z,69.70
2018-08-19T18:00:02.845Z,70.00
2018-08-19T18:02:34.003Z,70.30
2018-08-19T18:05:04.712Z,70.70
2018-08-19T18:07:35.362Z,70.30
2018-08-19T18:10:10.228Z,70.80
2018-08-19T18:12:38.376Z,71.20
2018-08-19T18:15:14.017Z,71.40
2018-08-19T18:17:54.282Z,71.80
2018-08-19T18:20:24.894Z,71.90
2018-08-19T18:22:56.867Z,72.20
2018-08-19T18:25:26.244Z,72.50
2018-08-19T18:27:55.974Z,72.80
2018-08-19T18:30:26.168Z,73.10
2018-08-19T18:32:55.735Z,73.70
2018-08-19T18:35:24.620Z,74.90
2018-08-19T18:37:53.148Z,74.50
2018-08-19T18:40:31.987Z,74.80
2018-08-19T18:43:04.684Z,75.20
2018-08-19T18:45:32.804Z,75.40
2018-08-19T18:48:02.608Z,75.90
2018-08-19T18:50:32.317Z,76.30
2018-08-19T18:53:04.384Z,76.90
2018-08-19T18:55:33.588Z,77.00
2018-08-19T18:58:05.472Z,77.30
2018-08-19T19:00:34.452Z,77.60
2018-08-19T19:03:04.200Z,78.00
2018-08-19T19:05:40.510Z,78.20
2018-08-19T19:08:10.594Z,78.90
2018-08-19T19:10:46.697Z,79.30
2018-08-19T19:13:16.803Z,80.70
2018-08-19T19:15:45.879Z,80.30
2018-08-19T19:18:14.614Z,80.60
2018-08-19T19:21:22.578Z,81.00
2018-08-19T19:23:51.681Z,81.60
2018-08-19T19:26:29.757Z,82.10
2018-08-19T19:28:59.031Z,82.50
2018-08-19T19:31:27.178Z,83.00
2018-08-19T19:34:02.614Z,83.20
2018-08-19T19:36:31.129Z,83.60
2018-08-19T19:39:01.314Z,84.00
2018-08-19T19:41:34.308Z,84.30
2018-08-19T19:44:19.950Z,84.60
2018-08-19T19:46:52.886Z,84.90
2018-08-19T19:49:23.351Z,85.40
2018-08-19T19:51:57.048Z,85.60
2018-08-19T19:54:25.810Z,85.90
2018-08-19T19:56:57.208Z,86.20
2018-08-19T19:59:28.432Z,86.60
2018-08-19T20:01:57.709Z,86.80
2018-08-19T20:04:25.867Z,87.00
2018-08-19T20:06:54.791Z,87.30
2018-08-19T20:09:24.657Z,87.60
2018-08-19T20:11:54.399Z,87.90
2018-08-19T20:14:23.836Z,88.30
2018-08-19T20:16:55.085Z,88.70
2018-08-19T20:19:25.820Z,89.30
2018-08-19T20:21:54.533Z,89.50
2018-08-19T20:24:23.167Z,90.00
2018-08-19T20:26:52.743Z,90.30
2018-08-19T20:29:23.198Z,90.50
2018-08-19T20:31:53.134Z,90.60
2018-08-19T20:34:23.218Z,90.70
2018-08-19T20:36:51.860Z,90.80
2018-08-19T20:39:21.249Z,90.90
2018-08-19T20:41:49.780Z,90.90
2018-08-19T20:44:22.226Z,91.00
2018-08-19T20:46:54.899Z,91.00
2018-08-19T20:49:25.787Z,91.00
2018-08-19T20:51:56.272Z,91.10
2018-08-19T20:54:25.476Z,91.10
2018-08-19T20:56:54.901Z,91.20
2018-08-19T20:59:28.597Z,91.30
2018-08-19T21:01:57.052Z,91.40
2018-08-19T21:04:28.804Z,91.60
2018-08-19T21:06:58.381Z,91.80
2018-08-19T21:09:27.947Z,91.90
2018-08-19T21:11:57.939Z,92.20
2018-08-19T21:14:27.220Z,92.30
2018-08-19T21:16:56.623Z,92.40
2018-08-19T21:19:25.092Z,92.50
2018-08-19T21:21:54.968Z,92.60
2018-08-19T21:24:23.151Z,92.70
2018-08-19T21:26:57.813Z,92.90
2018-08-19T21:29:27.759Z,93.00
2018-08-19T21:31:57.634Z,93.20
2018-08-19T21:34:31.729Z,93.50
2018-08-19T21:37:03.100Z,93.80
2018-08-19T21:42:24.492Z,94.50
2018-08-19T21:44:53.580Z,95.00
2018-08-19T21:47:21.789Z,95.40
2018-08-19T21:49:54.486Z,95.60
2018-08-19T21:52:22.675Z,95.90
2018-08-19T21:54:50.816Z,96.20
2018-08-19T21:57:19.767Z,96.40
2018-08-19T21:59:47.936Z,96.80
2018-08-19T22:02:21.636Z,97.20
2018-08-19T22:04:49.844Z,97.60
2018-08-19T22:07:18.412Z,97.90
2018-08-19T22:09:46.613Z,98.30
2018-08-19T22:12:15.523Z,98.70
2018-08-19T22:14:43.644Z,99.00
2018-08-19T22:17:11.848Z,99.30
2018-08-19T22:19:40.943Z,99.60
2018-08-19T22:22:11.061Z,99.90
2018-08-19T22:24:39.196Z,99.90
2018-08-19T22:27:12.537Z,99.90
2018-08-19T22:29:43.851Z,99.90
2018-08-19T22:32:12.063Z,99.90
2018-08-19T22:34:40.196Z,99.90
2018-08-19T22:37:09.165Z,99.90
2018-08-19T22:39:38.262Z,99.90
2018-08-19T22:42:06.437Z,99.90
2018-08-19T22:44:34.589Z,99.90
2018-08-19T22:47:04.497Z,99.90
2018-08-19T22:49:32.648Z,99.90
2018-08-19T22:52:11.831Z,99.90
2018-08-19T22:54:39.953Z,99.90
2018-08-19T22:57:08.117Z,99.90
2018-08-19T22:59:36.887Z,99.90
2018-08-19T23:02:05.037Z,99.90
2018-08-19T23:04:33.185Z,99.90
2018-08-19T23:07:02.460Z,99.90
2018-08-19T23:09:31.886Z,99.90
2018-08-19T23:12:00.068Z,99.90
2018-08-19T23:14:39.820Z,99.90
2018-08-19T23:17:09.617Z,99.90
2018-08-19T23:19:38.336Z,99.90
2018-08-19T23:22:07.550Z,99.90
2018-08-19T23:24:35.749Z,99.90
2018-08-19T23:27:05.232Z,99.90
2018-08-19T23:29:33.763Z,99.90
2018-08-19T23:32:02.475Z,99.90
2018-08-19T23:34:30.610Z,99.90
2018-08-19T23:36:59.461Z,99.90
2018-08-19T23:39:28.472Z,99.90
2018-08-19T23:41:56.589Z,99.90
2018-08-19T23:44:24.784Z,99.90
2018-08-19T23:46:52.940Z,99.90
2018-08-19T23:49:21.560Z,99.90
2018-08-19T23:51:49.706Z,99.90
2018-08-19T23:54:17.907Z,99.90
2018-08-19T23:56:47.206Z,99.90
2018-08-19T23:59:21.006Z,99.90
